Ishpeming, Michigan
Current Conditions -  °F | °C
As of 11:37 PM on Tuesday 21 Oct 2014 (Local Time) from KSAW Reporting Station
Clear Clear  
Wind Chill: 27°   Ceiling: Unl
Heat Index: 27°   Visibility: 10mi
Dew Point: 25°   Wind: 0mph
Humidity: 92%   Direction: NA
Pressure: 30.3"   Gusts: NA
Location:  46.49°N, 87.67°W
Report Text: KSAW 220337Z AUTO 00000KT 10SM CLR M03/M04 A3030 RMK AO2 T10291041
Loading
Personal Weather Stations






























Interactive Weather Map
Tropical Storm Tracking
New forecast layout! Learn more

10-Day Weather Forecast

Advertisements
Track Severe Weather on mobile